createdAt,value
2018-12-26T00:05:43.216Z,-2.59
2018-12-26T00:09:26.366Z,-2.52
2018-12-26T00:12:50.774Z,-2.50
2018-12-26T00:16:15.078Z,-2.46
2018-12-26T00:19:32.034Z,-2.53
2018-12-26T00:22:56.276Z,-2.58
2018-12-26T00:26:20.508Z,-2.58
2018-12-26T00:29:44.512Z,-2.64
2018-12-26T00:33:08.575Z,-2.40
2018-12-26T00:36:32.647Z,-2.43
2018-12-26T00:39:56.632Z,-2.70
2018-12-26T00:47:43.396Z,-2.80
2018-12-26T00:51:07.740Z,-2.79
2018-12-26T00:54:32.043Z,-2.80
2018-12-26T00:57:56.044Z,-2.75
2018-12-26T01:01:20.303Z,-2.78
2018-12-26T01:04:44.962Z,-2.74
2018-12-26T01:08:09.224Z,-2.53
2018-12-26T01:11:33.422Z,-2.62
2018-12-26T01:14:57.973Z,-2.74
2018-12-26T01:18:22.334Z,-2.71
2018-12-26T01:21:46.299Z,-2.69
2018-12-26T01:25:10.299Z,-2.70
2018-12-26T01:28:34.347Z,-2.67
2018-12-26T01:35:47.761Z,-2.57
2018-12-26T01:39:11.986Z,-2.54
2018-12-26T01:42:36.222Z,-2.60
2018-12-26T01:46:00.208Z,-2.64
2018-12-26T01:49:55.792Z,-2.63
2018-12-26T01:53:09.444Z,-2.69
2018-12-26T01:56:52.714Z,-2.66
2018-12-26T02:00:16.693Z,-2.69
2018-12-26T02:03:40.665Z,-2.65
2018-12-26T02:07:04.652Z,-2.58
2018-12-26T02:10:47.903Z,-2.56
2018-12-26T02:14:11.883Z,-2.66
2018-12-26T02:17:54.892Z,-2.64
2018-12-26T02:21:12.069Z,-2.66
2018-12-26T02:24:36.342Z,-2.52
2018-12-26T02:28:00.559Z,-2.47
2018-12-26T02:31:43.568Z,-2.36
2018-12-26T02:35:07.558Z,-2.23
2018-12-26T02:38:31.516Z,-2.24
2018-12-26T02:41:55.493Z,-2.27
2018-12-26T02:45:19.712Z,-2.20
2018-12-26T02:48:43.689Z,-2.22
2018-12-26T02:52:07.656Z,-2.07
2018-12-26T02:55:31.890Z,-2.26
2018-12-26T02:58:56.140Z,-2.67
2018-12-26T03:09:33.020Z,-3.41
2018-12-26T03:12:57.006Z,-3.44
2018-12-26T03:16:21.246Z,-3.38
2018-12-26T03:19:37.979Z,-3.21
2018-12-26T03:26:31.738Z,-2.95
2018-12-26T03:29:55.732Z,-2.95
2018-12-26T03:33:19.715Z,-3.03
2018-12-26T03:36:43.710Z,-3.18
2018-12-26T03:40:28.702Z,-3.06
2018-12-26T03:43:52.974Z,-3.05
2018-12-26T03:47:37.734Z,-2.96
2018-12-26T03:54:52.263Z,-2.91
2018-12-26T03:57:57.255Z,-2.93
2018-12-26T04:01:01.870Z,-2.75
2018-12-26T04:04:26.187Z,-2.83
2018-12-26T04:07:50.575Z,-2.83
2018-12-26T04:11:14.569Z,-2.96
2018-12-26T04:14:38.538Z,-3.09
2018-12-26T04:21:58.884Z,-2.87
2018-12-26T04:29:13.384Z,-3.06
2018-12-26T04:32:37.428Z,-3.17
2018-12-26T04:36:20.671Z,-3.21
2018-12-26T04:39:44.652Z,-3.26
2018-12-26T04:46:51.568Z,-3.32
2018-12-26T04:50:15.848Z,-3.26
2018-12-26T04:53:40.146Z,-3.15
2018-12-26T05:00:33.960Z,-2.95
2018-12-26T05:03:57.934Z,-3.02
2018-12-26T05:07:21.936Z,-3.01
2018-12-26T05:14:15.150Z,-2.87
2018-12-26T05:17:39.135Z,-2.86
2018-12-26T05:20:55.582Z,-2.80
2018-12-26T05:24:19.576Z,-2.60
2018-12-26T05:27:43.804Z,-2.55
2018-12-26T05:31:07.777Z,-2.54
2018-12-26T05:34:31.744Z,-2.46
2018-12-26T05:37:55.725Z,-2.33
2018-12-26T05:41:38.733Z,-2.25
2018-12-26T05:45:02.703Z,-2.14
2018-12-26T05:48:26.687Z,-2.05
2018-12-26T05:51:50.671Z,-1.99
2018-12-26T05:55:14.894Z,-1.90
2018-12-26T05:58:38.856Z,-1.98
2018-12-26T06:02:03.144Z,-2.02
2018-12-26T06:05:27.108Z,-2.05
2018-12-26T06:08:51.085Z,-2.08
2018-12-26T06:12:15.073Z,-2.07
2018-12-26T06:15:39.040Z,-1.81
2018-12-26T06:18:55.722Z,-2.03
2018-12-26T06:22:19.696Z,-2.11
2018-12-26T06:25:43.951Z,-2.05
2018-12-26T06:29:07.932Z,-1.91
2018-12-26T06:32:31.912Z,-1.90
2018-12-26T06:35:55.900Z,-1.67
2018-12-26T06:39:19.875Z,-1.68
2018-12-26T06:46:14.717Z,-2.04
2018-12-26T06:49:57.764Z,-2.23
2018-12-26T06:53:21.747Z,-2.30
2018-12-26T07:00:28.927Z,-2.16
2018-12-26T07:04:12.181Z,-2.01
2018-12-26T07:07:36.257Z,-2.30
2018-12-26T07:11:00.449Z,-2.51
2018-12-26T07:14:24.517Z,-2.69
2018-12-26T07:17:48.511Z,-2.70
2018-12-26T07:21:05.326Z,-2.66
2018-12-26T07:24:29.608Z,-2.68
2018-12-26T07:27:53.626Z,-2.76
2018-12-26T07:35:00.826Z,-2.76
2018-12-26T07:38:24.776Z,-2.77
2018-12-26T07:41:49.084Z,-2.73
2018-12-26T07:45:32.102Z,-2.77
2018-12-26T07:52:25.824Z,-2.70
2018-12-26T07:55:49.812Z,-2.66
2018-12-26T07:59:13.843Z,-2.71
2018-12-26T08:02:38.064Z,-2.58
2018-12-26T08:09:31.489Z,-2.28
2018-12-26T08:16:20.065Z,-1.87
2018-12-26T08:19:36.986Z,-1.88
2018-12-26T08:23:00.957Z,-1.78
2018-12-26T08:26:24.944Z,-1.64
2018-12-26T08:29:48.928Z,-1.62
2018-12-26T08:33:13.141Z,-1.30
2018-12-26T08:36:17.785Z,-1.30
2018-12-26T08:39:41.763Z,-1.17
2018-12-26T08:46:30.299Z,-1.26
2018-12-26T08:49:54.276Z,-1.18
2018-12-26T08:53:18.306Z,-1.16
2018-12-26T08:56:23.018Z,-1.21
2018-12-26T08:59:27.908Z,-1.10
2018-12-26T09:03:11.930Z,-1.07
2018-12-26T09:09:46.204Z,-0.48
2018-12-26T09:13:10.495Z,-0.51
2018-12-26T09:19:57.671Z,-0.54
2018-12-26T09:23:21.669Z,-0.25
2018-12-26T09:26:45.652Z,-0.20
2018-12-26T09:34:00.636Z,0.00
2018-12-26T09:37:43.860Z,0.13
2018-12-26T09:41:08.169Z,0.11
2018-12-26T09:44:32.134Z,0.43
2018-12-26T09:47:56.112Z,0.26
2018-12-26T09:51:20.322Z,0.38
2018-12-26T09:54:44.277Z,0.66
2018-12-26T09:58:08.286Z,0.96
2018-12-26T10:01:32.552Z,0.78
2018-12-26T10:04:37.167Z,1.21
2018-12-26T10:07:41.797Z,1.23
2018-12-26T10:10:46.661Z,1.21
2018-12-26T10:14:10.626Z,1.21
2018-12-26T10:17:34.602Z,1.21
2018-12-26T10:20:39.213Z,1.25
2018-12-26T10:24:03.170Z,1.24
2018-12-26T10:27:27.133Z,1.30
2018-12-26T10:30:51.121Z,1.37
2018-12-26T10:34:15.364Z,1.54
2018-12-26T10:37:41.066Z,1.72
2018-12-26T10:41:05.339Z,1.77
2018-12-26T10:44:29.300Z,1.91
2018-12-26T10:47:53.270Z,1.79
2018-12-26T10:51:17.235Z,1.83
2018-12-26T11:02:14.453Z,2.52
2018-12-26T11:05:38.450Z,2.54
2018-12-26T11:09:02.658Z,2.50
2018-12-26T11:20:07.034Z,3.03
2018-12-26T11:23:50.241Z,2.95
2018-12-26T11:27:14.502Z,3.23
2018-12-26T11:37:55.035Z,3.35
2018-12-26T11:41:19.083Z,3.31
2018-12-26T11:44:43.394Z,3.28
2018-12-26T11:48:07.687Z,3.17
2018-12-26T11:51:50.926Z,3.14
2018-12-26T11:59:05.411Z,3.24
2018-12-26T12:02:29.375Z,3.28
2018-12-26T12:13:05.709Z,3.30
2018-12-26T12:16:29.988Z,3.30
2018-12-26T12:19:47.398Z,3.25
2018-12-26T12:23:11.364Z,3.24
2018-12-26T12:30:18.566Z,3.38
2018-12-26T12:33:42.805Z,3.45
2018-12-26T12:37:06.763Z,3.79
2018-12-26T12:40:30.777Z,4.14
2018-12-26T12:43:54.704Z,3.93
2018-12-26T12:47:18.939Z,3.82
2018-12-26T12:51:01.942Z,3.64
2018-12-26T12:54:46.944Z,3.34
2018-12-26T12:58:10.929Z,3.34
2018-12-26T13:01:53.918Z,3.32
2018-12-26T13:05:17.882Z,3.38
2018-12-26T13:08:41.842Z,3.49
2018-12-26T13:12:05.801Z,3.51
2018-12-26T13:15:48.813Z,3.54
2018-12-26T13:19:05.747Z,3.43
2018-12-26T13:22:48.981Z,3.35
2018-12-26T13:26:13.021Z,3.31
2018-12-26T13:29:36.967Z,3.31
2018-12-26T13:36:44.163Z,3.35
2018-12-26T13:43:58.539Z,3.34
2018-12-26T13:47:22.868Z,3.06
2018-12-26T13:50:46.842Z,3.00
2018-12-26T13:54:10.817Z,2.76
2018-12-26T13:57:34.777Z,2.50
2018-12-26T14:00:58.747Z,2.32
2018-12-26T14:04:23.075Z,2.15
2018-12-26T14:07:47.065Z,2.02
2018-12-26T14:11:11.324Z,1.84
2018-12-26T14:14:35.648Z,1.68
2018-12-26T14:17:59.604Z,1.60
2018-12-26T14:21:16.658Z,1.50
2018-12-26T14:24:59.898Z,1.40
2018-12-26T14:28:23.874Z,1.24
2018-12-26T14:31:47.922Z,1.16
2018-12-26T14:35:11.875Z,1.01
2018-12-26T14:38:36.109Z,0.74
2018-12-26T14:42:00.124Z,0.78
2018-12-26T14:45:24.093Z,0.53
2018-12-26T14:48:48.052Z,0.54
2018-12-26T14:52:12.051Z,0.39
2018-12-26T14:55:44.510Z,0.19
2018-12-26T14:59:08.478Z,0.02
2018-12-26T15:02:32.692Z,-0.22
2018-12-26T15:05:56.679Z,-0.25
2018-12-26T15:09:20.892Z,-0.34
2018-12-26T15:12:44.873Z,-0.44
2018-12-26T15:16:09.109Z,-0.41
2018-12-26T15:19:26.348Z,-0.63
2018-12-26T15:22:31.048Z,-0.72
2018-12-26T15:25:55.030Z,-0.76
2018-12-26T15:29:19.009Z,-0.76
2018-12-26T15:32:43.338Z,-0.82
2018-12-26T15:36:07.324Z,-0.74
2018-12-26T15:39:31.337Z,-0.89
2018-12-26T15:42:55.398Z,-0.86
2018-12-26T15:46:19.386Z,-0.82
2018-12-26T15:53:47.167Z,-1.13
2018-12-26T15:57:11.453Z,-1.36
2018-12-26T16:00:37.576Z,-1.30
2018-12-26T16:04:01.737Z,-1.23
2018-12-26T16:07:25.714Z,-1.06
2018-12-26T16:11:08.721Z,-1.36
2018-12-26T16:14:32.974Z,-1.69
2018-12-26T16:17:57.285Z,-1.81
2018-12-26T16:21:14.352Z,-1.83
2018-12-26T16:24:38.374Z,-1.93
2018-12-26T16:28:02.401Z,-1.97
2018-12-26T16:39:00.000Z,-2.32
2018-12-26T16:42:24.262Z,-2.31
2018-12-26T16:45:48.232Z,-2.38
2018-12-26T16:49:12.212Z,-2.01
2018-12-26T16:52:36.475Z,-2.08
2018-12-26T16:56:00.437Z,-2.45
2018-12-26T16:59:24.528Z,-2.66
2018-12-26T17:02:29.388Z,-2.59
2018-12-26T17:05:34.056Z,-2.76
2018-12-26T17:08:58.098Z,-2.74
2018-12-26T17:12:22.333Z,-2.84
2018-12-26T17:19:09.597Z,-2.81
2018-12-26T17:29:46.820Z,-2.86
2018-12-26T17:33:10.826Z,-2.71
2018-12-26T17:36:34.773Z,-2.63
2018-12-26T17:39:41.692Z,-2.66
2018-12-26T17:42:46.116Z,-2.77
2018-12-26T17:45:51.024Z,-2.61
2018-12-26T17:48:55.954Z,-2.65
2018-12-26T17:52:00.869Z,-2.72
2018-12-26T17:55:15.809Z,-2.75
2018-12-26T17:58:20.476Z,-2.77
2018-12-26T18:01:41.591Z,-2.85
2018-12-26T18:04:46.578Z,-2.48
2018-12-26T18:07:51.229Z,-2.33
2018-12-26T18:10:56.003Z,-2.73
2018-12-26T18:14:00.651Z,-2.95
2018-12-26T18:17:05.627Z,-3.11
2018-12-26T18:20:10.534Z,-3.18
2018-12-26T18:23:15.304Z,-2.97
2018-12-26T18:26:20.033Z,-3.32
2018-12-26T18:29:24.707Z,-3.42
2018-12-26T18:32:29.599Z,-3.28
2018-12-26T18:35:34.347Z,-3.51
2018-12-26T18:38:38.987Z,-3.64
2018-12-26T18:41:43.659Z,-3.57
2018-12-26T18:44:48.322Z,-3.62
2018-12-26T18:47:53.317Z,-3.57
2018-12-26T18:50:57.968Z,-3.58
2018-12-26T18:54:02.969Z,-3.48
2018-12-26T18:57:07.677Z,-3.58
2018-12-26T19:00:12.492Z,-3.63
2018-12-26T19:03:17.369Z,-3.61
2018-12-26T19:06:22.400Z,-3.60
2018-12-26T19:09:27.343Z,-3.64
2018-12-26T19:12:32.274Z,-3.66
2018-12-26T19:15:36.943Z,-3.52
2018-12-26T19:18:41.678Z,-3.37
2018-12-26T19:21:46.326Z,-3.17
2018-12-26T19:24:51.446Z,-3.17
2018-12-26T19:27:56.537Z,-3.19
2018-12-26T19:31:01.165Z,-3.19
2018-12-26T19:34:05.815Z,-3.19
2018-12-26T19:37:10.484Z,-2.93
2018-12-26T19:40:15.445Z,-3.26
2018-12-26T19:43:20.098Z,-3.43
2018-12-26T19:46:24.733Z,-3.24
2018-12-26T19:49:29.381Z,-3.50
2018-12-26T19:52:34.035Z,-3.69
2018-12-26T19:55:39.222Z,-3.68
2018-12-26T19:58:44.283Z,-3.76
2018-12-26T20:01:49.214Z,-3.74
2018-12-26T20:04:54.878Z,-3.95
2018-12-26T20:08:00.060Z,-4.01
2018-12-26T20:11:04.712Z,-3.97
2018-12-26T20:14:10.014Z,-3.88
2018-12-26T20:17:15.029Z,-3.93
2018-12-26T20:20:19.942Z,-4.00
2018-12-26T20:23:24.602Z,-4.06
2018-12-26T20:26:29.295Z,-3.95
2018-12-26T20:29:33.940Z,-3.96
2018-12-26T20:32:39.148Z,-3.96
2018-12-26T20:35:44.634Z,-3.94
2018-12-26T20:38:49.280Z,-4.01
2018-12-26T20:41:54.047Z,-4.04
2018-12-26T20:44:58.925Z,-4.02
2018-12-26T20:48:03.604Z,-4.06
2018-12-26T20:51:08.246Z,-4.10
2018-12-26T20:54:13.188Z,-4.17
2018-12-26T20:57:17.873Z,-4.13
2018-12-26T21:00:22.535Z,-4.00
2018-12-26T21:03:27.187Z,-4.11
2018-12-26T21:06:32.089Z,-3.91
2018-12-26T21:09:36.861Z,-3.73
2018-12-26T21:12:41.498Z,-3.82
2018-12-26T21:15:47.480Z,-4.15
2018-12-26T21:18:52.167Z,-4.15
2018-12-26T21:21:56.920Z,-4.23
2018-12-26T21:25:01.577Z,-4.35
2018-12-26T21:28:06.520Z,-4.42
2018-12-26T21:31:11.188Z,-4.43
2018-12-26T21:34:16.205Z,-4.53
2018-12-26T21:37:20.850Z,-4.53
2018-12-26T21:40:25.832Z,-4.50
2018-12-26T21:43:30.767Z,-4.50
2018-12-26T21:46:35.495Z,-4.46
2018-12-26T21:49:40.201Z,-4.48
2018-12-26T21:52:44.827Z,-4.40
2018-12-26T21:55:49.472Z,-4.31
2018-12-26T21:58:55.663Z,-4.29
2018-12-26T22:02:00.353Z,-4.32
2018-12-26T22:05:05.274Z,-4.38
2018-12-26T22:08:11.813Z,-4.38
2018-12-26T22:11:16.464Z,-4.25
2018-12-26T22:14:21.113Z,-4.29
2018-12-26T22:17:25.762Z,-4.36
2018-12-26T22:20:30.686Z,-4.43
2018-12-26T22:23:35.394Z,-4.44
2018-12-26T22:26:43.335Z,-4.48
2018-12-26T22:29:46.461Z,-4.45
2018-12-26T22:32:55.705Z,-4.33
2018-12-26T22:36:19.419Z,-4.45
2018-12-26T22:39:24.402Z,-4.54
2018-12-26T22:42:29.034Z,-4.55
2018-12-26T22:45:43.713Z,-4.47
2018-12-26T22:48:42.869Z,-4.38
2018-12-26T22:51:47.637Z,-4.41
2018-12-26T22:54:54.784Z,-4.46
2018-12-26T22:57:58.986Z,-4.48
2018-12-26T23:01:03.778Z,-4.39
2018-12-26T23:04:08.564Z,-4.51
2018-12-26T23:07:13.656Z,-4.61
2018-12-26T23:10:18.244Z,-4.58
2018-12-26T23:13:23.011Z,-4.53
2018-12-26T23:16:27.674Z,-4.43
2018-12-26T23:19:32.496Z,-4.51
2018-12-26T23:22:37.170Z,-4.64
2018-12-26T23:25:45.210Z,-4.66
2018-12-26T23:28:49.944Z,-4.63
2018-12-26T23:31:56.612Z,-4.61
2018-12-26T23:35:01.256Z,-4.56
2018-12-26T23:38:05.902Z,-4.51
2018-12-26T23:44:40.392Z,-4.62
2018-12-26T23:48:04.682Z,-4.61
2018-12-26T23:54:57.865Z,-4.78
2018-12-26T23:58:22.251Z,-4.62
